Milldale, CT

5:52 PM EDT on August 21, 2014 (GMT -0400)
Morins of Plantsville | Change Station
CLOSE
Current Station
Personal Weather Station
Location: Plantsville, CT
Elevation: 214 ft
Nearby Weather Stations

Elev 214 ft 41.58 °N, 72.91 °W | Updated 9 seconds ago

Mostly Cloudy
Mostly Cloudy
75.6 °F
Feels Like 77 °F
N
0.0
Wind Variable Wind from SSE
Gusts 0.0 mph

Today
High -- | Low -- °F
--% Chance of Precip.
Yesterday
High -- | Low -- °F
Precip. -- in
6:06 AM 7:42 PM
Waning Crescent, 12% visible
Pressure 30.04 in
Visibility 10.0 miles
Clouds Mostly Cloudy 5500 ft
Heat Index 77 °F
Dew Point 42 °F
Humidity 30%
Rainfall 0.04 in
Snow Depth Not available.
UV 2 out of 12
Pollen 8.00 out of 12
Ozone Good
Flu Activity Not available.
METAR KMMK 212053Z AUTO 19007KT 10SM BKN055 26/14 A3004 RMK AO2 SLP170 T02560139 55005 TSNO $

More Conditions Fewer Conditions

Pressure 30.04 in
Visibility 10.0 miles
Clouds Mostly Cloudy 5500 ft
Heat Index 77 °F
Dew Point 42 °F
Humidity 30%
Rainfall 0.04 in
Snow Depth Not available.
UV 2 out of 12
Pollen 8.00 out of 12
Ozone Good
Flu Activity Not available.
METAR KMMK 212053Z AUTO 19007KT 10SM BKN055 26/14 A3004 RMK AO2 SLP170 T02560139 55005 TSNO $

More Conditions Fewer Conditions

10-Day Weather Forecast

Almanac

Astronomy

Aug. 21, 2014 Rise Set
Actual Time 6:06 AM EDT 7:42 PM EDT
Civil Twilight 5:37 AM EDT 8:11 PM EDT
Nautical Twilight 5:01 AM EDT 8:46 PM EDT
Astronomical Twilight 4:23 AM EDT 9:24 PM EDT
Moon 2:33 AM EDT 5:10 PM EDT
Length of Visible Light 14h 34m
Length of Day
13h 35m
Tomorrow will be 2m 33s shorter.
Waning Crescent, 12% of the Moon is Illuminated
Today
Waning Crescent
Aug 25
New
Sep 2
First Quarter
Sep 8
Full
Sep 15
Last Quarter

Today's Extremes

State Highs State Lows

Community

WunderPhotos

Upload Photos

1,746,021 photos uploaded!

WunderBlogs® & News

Nearby

Air Quality

  Air Quality AQ Index Pollutant
Yesterday Good
OZONE
Current Good
OZONE
Thursday Moderate
PM2.5
Thursday Good
OZONE
Friday Good
PM2.5
Friday Good
OZONE

Snow Depth

Station Depth Elevation
No new snow has been reported.

Earthquake Activity

City Distance Mag. Time & Date
No recent earthquake activity has been reported nearby.
Minimum magnitude displayed is 2.5.

Coastal Water Temperatures

Place Temperature
Bridgeport, CT 73.9 °F

Nearby Weather Stations